sensor_id;sensor_type;location;lat;lon;timestamp;P1;durP1;ratioP1;P2;durP2;ratioP2
77542;SDS011;66669;52.100;5.104;2023-02-22T00:01:17;14.95;;;11.15;;
77542;SDS011;66669;52.100;5.104;2023-02-22T00:03:52;14.32;;;11.25;;
77542;SDS011;66669;52.100;5.104;2023-02-22T00:06:19;14.90;;;10.57;;
77542;SDS011;66669;52.100;5.104;2023-02-22T00:08:47;14.95;;;10.98;;
77542;SDS011;66669;52.100;5.104;2023-02-22T00:11:16;16.10;;;12.18;;
77542;SDS011;66669;52.100;5.104;2023-02-22T00:13:43;14.85;;;11.15;;
77542;SDS011;66669;52.100;5.104;2023-02-22T00:16:12;15.13;;;11.15;;
77542;SDS011;66669;52.100;5.104;2023-02-22T00:18:38;13.93;;;10.50;;
77542;SDS011;66669;52.100;5.104;2023-02-22T00:21:04;13.77;;;11.07;;
77542;SDS011;66669;52.100;5.104;2023-02-22T00:23:34;13.77;;;10.38;;
77542;SDS011;66669;52.100;5.104;2023-02-22T00:26:04;13.45;;;10.38;;
77542;SDS011;66669;52.100;5.104;2023-02-22T00:28:33;13.95;;;11.00;;
77542;SDS011;66669;52.100;5.104;2023-02-22T00:31:01;13.02;;;10.18;;
77542;SDS011;66669;52.100;5.104;2023-02-22T00:33:27;12.65;;;9.88;;
77542;SDS011;66669;52.100;5.104;2023-02-22T00:35:53;13.35;;;9.75;;
77542;SDS011;66669;52.100;5.104;2023-02-22T00:38:18;13.20;;;9.80;;
77542;SDS011;66669;52.100;5.104;2023-02-22T00:40:44;19.92;;;14.90;;
77542;SDS011;66669;52.100;5.104;2023-02-22T00:43:09;14.27;;;11.02;;
77542;SDS011;66669;52.100;5.104;2023-02-22T00:45:35;17.30;;;13.52;;
77542;SDS011;66669;52.100;5.104;2023-02-22T00:48:01;16.85;;;13.63;;
77542;SDS011;66669;52.100;5.104;2023-02-22T00:50:29;14.73;;;11.18;;
77542;SDS011;66669;52.100;5.104;2023-02-22T00:52:56;15.23;;;12.43;;
77542;SDS011;66669;52.100;5.104;2023-02-22T00:55:23;19.05;;;14.98;;
77542;SDS011;66669;52.100;5.104;2023-02-22T00:57:59;18.55;;;14.75;;
77542;SDS011;66669;52.100;5.104;2023-02-22T01:00:31;16.77;;;12.70;;
77542;SDS011;66669;52.100;5.104;2023-02-22T01:03:01;12.32;;;10.60;;
77542;SDS011;66669;52.100;5.104;2023-02-22T01:05:29;15.80;;;12.77;;
77542;SDS011;66669;52.100;5.104;2023-02-22T01:07:56;16.90;;;12.88;;
77542;SDS011;66669;52.100;5.104;2023-02-22T01:10:24;15.57;;;12.35;;
77542;SDS011;66669;52.100;5.104;2023-02-22T01:12:52;16.98;;;14.02;;
77542;SDS011;66669;52.100;5.104;2023-02-22T01:15:19;18.50;;;14.25;;
77542;SDS011;66669;52.100;5.104;2023-02-22T01:17:46;17.07;;;13.73;;
77542;SDS011;66669;52.100;5.104;2023-02-22T01:20:13;18.85;;;14.35;;
77542;SDS011;66669;52.100;5.104;2023-02-22T01:22:39;14.93;;;12.45;;
77542;SDS011;66669;52.100;5.104;2023-02-22T01:25:06;13.77;;;10.75;;
77542;SDS011;66669;52.100;5.104;2023-02-22T01:27:33;14.77;;;11.88;;
77542;SDS011;66669;52.100;5.104;2023-02-22T01:29:59;14.02;;;11.90;;
77542;SDS011;66669;52.100;5.104;2023-02-22T01:32:25;17.80;;;14.48;;
77542;SDS011;66669;52.100;5.104;2023-02-22T01:34:52;16.48;;;13.93;;
77542;SDS011;66669;52.100;5.104;2023-02-22T01:37:17;17.73;;;14.80;;
77542;SDS011;66669;52.100;5.104;2023-02-22T01:39:43;17.27;;;14.15;;
77542;SDS011;66669;52.100;5.104;2023-02-22T01:42:08;17.30;;;14.60;;
77542;SDS011;66669;52.100;5.104;2023-02-22T01:44:34;14.63;;;11.68;;
77542;SDS011;66669;52.100;5.104;2023-02-22T01:47:02;15.38;;;12.68;;
77542;SDS011;66669;52.100;5.104;2023-02-22T01:49:30;17.53;;;13.10;;
77542;SDS011;66669;52.100;5.104;2023-02-22T01:52:01;14.70;;;11.95;;
77542;SDS011;66669;52.100;5.104;2023-02-22T01:54:34;17.17;;;14.55;;
77542;SDS011;66669;52.100;5.104;2023-02-22T01:57:08;16.77;;;14.57;;
77542;SDS011;66669;52.100;5.104;2023-02-22T01:59:41;17.48;;;14.65;;
77542;SDS011;66669;52.100;5.104;2023-02-22T02:02:10;14.93;;;12.50;;
77542;SDS011;66669;52.100;5.104;2023-02-22T02:04:37;15.27;;;12.82;;
77542;SDS011;66669;52.100;5.104;2023-02-22T02:07:06;16.77;;;13.85;;
77542;SDS011;66669;52.100;5.104;2023-02-22T02:09:39;17.63;;;15.27;;
77542;SDS011;66669;52.100;5.104;2023-02-22T02:12:11;17.30;;;14.32;;
77542;SDS011;66669;52.100;5.104;2023-02-22T02:14:40;15.63;;;13.30;;
77542;SDS011;66669;52.100;5.104;2023-02-22T02:17:08;14.77;;;12.43;;
77542;SDS011;66669;52.100;5.104;2023-02-22T02:22:32;16.80;;;13.18;;
77542;SDS011;66669;52.100;5.104;2023-02-22T02:28:00;18.52;;;14.82;;
77542;SDS011;66669;52.100;5.104;2023-02-22T02:38:29;16.10;;;13.25;;
77542;SDS011;66669;52.100;5.104;2023-02-22T02:46:23;17.45;;;14.23;;
77542;SDS011;66669;52.100;5.104;2023-02-22T02:49:05;15.23;;;13.10;;
77542;SDS011;66669;52.100;5.104;2023-02-22T02:51:36;16.95;;;14.23;;
77542;SDS011;66669;52.100;5.104;2023-02-22T02:54:05;15.60;;;12.80;;
77542;SDS011;66669;52.100;5.104;2023-02-22T02:56:33;17.27;;;14.10;;
77542;SDS011;66669;52.100;5.104;2023-02-22T02:58:59;17.58;;;13.48;;
77542;SDS011;66669;52.100;5.104;2023-02-22T03:01:42;18.02;;;14.10;;
77542;SDS011;66669;52.100;5.104;2023-02-22T03:13:00;15.07;;;13.05;;
77542;SDS011;66669;52.100;5.104;2023-02-22T03:15:49;16.15;;;13.73;;
77542;SDS011;66669;52.100;5.104;2023-02-22T03:18:26;13.75;;;11.55;;
77542;SDS011;66669;52.100;5.104;2023-02-22T03:21:08;15.95;;;13.23;;
77542;SDS011;66669;52.100;5.104;2023-02-22T03:23:50;17.07;;;14.27;;
77542;SDS011;66669;52.100;5.104;2023-02-22T03:26:36;18.02;;;13.82;;
77542;SDS011;66669;52.100;5.104;2023-02-22T03:29:06;19.77;;;16.10;;
77542;SDS011;66669;52.100;5.104;2023-02-22T03:31:39;16.90;;;13.45;;
77542;SDS011;66669;52.100;5.104;2023-02-22T03:36:46;17.17;;;14.15;;
77542;SDS011;66669;52.100;5.104;2023-02-22T03:39:16;17.02;;;14.60;;
77542;SDS011;66669;52.100;5.104;2023-02-22T03:41:45;17.40;;;13.98;;
77542;SDS011;66669;52.100;5.104;2023-02-22T03:44:14;19.30;;;15.23;;
77542;SDS011;66669;52.100;5.104;2023-02-22T03:46:43;16.52;;;13.43;;
77542;SDS011;66669;52.100;5.104;2023-02-22T03:52:02;18.40;;;14.95;;
77542;SDS011;66669;52.100;5.104;2023-02-22T03:54:28;16.63;;;13.00;;
77542;SDS011;66669;52.100;5.104;2023-02-22T03:56:57;16.33;;;13.13;;
77542;SDS011;66669;52.100;5.104;2023-02-22T03:59:28;19.40;;;15.30;;
77542;SDS011;66669;52.100;5.104;2023-02-22T04:01:55;17.55;;;14.35;;
77542;SDS011;66669;52.100;5.104;2023-02-22T04:04:22;18.35;;;14.07;;
77542;SDS011;66669;52.100;5.104;2023-02-22T04:06:49;17.15;;;13.80;;
77542;SDS011;66669;52.100;5.104;2023-02-22T04:09:15;18.60;;;14.75;;
77542;SDS011;66669;52.100;5.104;2023-02-22T04:11:41;15.95;;;13.10;;
77542;SDS011;66669;52.100;5.104;2023-02-22T04:14:07;13.10;;;10.35;;
77542;SDS011;66669;52.100;5.104;2023-02-22T04:16:32;12.45;;;10.25;;
77542;SDS011;66669;52.100;5.104;2023-02-22T04:18:57;12.00;;;9.23;;
77542;SDS011;66669;52.100;5.104;2023-02-22T04:21:23;12.52;;;10.30;;
77542;SDS011;66669;52.100;5.104;2023-02-22T04:23:48;15.93;;;12.38;;
77542;SDS011;66669;52.100;5.104;2023-02-22T04:26:14;15.70;;;12.00;;
77542;SDS011;66669;52.100;5.104;2023-02-22T04:28:40;15.90;;;13.27;;
77542;SDS011;66669;52.100;5.104;2023-02-22T04:31:05;14.43;;;10.88;;
77542;SDS011;66669;52.100;5.104;2023-02-22T04:33:31;18.35;;;15.05;;
77542;SDS011;66669;52.100;5.104;2023-02-22T04:35:56;17.90;;;14.50;;
77542;SDS011;66669;52.100;5.104;2023-02-22T04:38:22;19.42;;;15.32;;
77542;SDS011;66669;52.100;5.104;2023-02-22T04:40:50;18.85;;;15.30;;
77542;SDS011;66669;52.100;5.104;2023-02-22T04:43:16;19.17;;;14.95;;
77542;SDS011;66669;52.100;5.104;2023-02-22T04:45:42;16.45;;;12.60;;
77542;SDS011;66669;52.100;5.104;2023-02-22T04:48:07;18.17;;;14.55;;
77542;SDS011;66669;52.100;5.104;2023-02-22T04:50:33;16.98;;;13.40;;
77542;SDS011;66669;52.100;5.104;2023-02-22T04:52:58;18.17;;;13.90;;
77542;SDS011;66669;52.100;5.104;2023-02-22T04:55:23;14.45;;;12.50;;
77542;SDS011;66669;52.100;5.104;2023-02-22T04:57:49;18.05;;;14.32;;
77542;SDS011;66669;52.100;5.104;2023-02-22T05:00:15;20.45;;;16.30;;
77542;SDS011;66669;52.100;5.104;2023-02-22T05:02:43;17.83;;;13.85;;
77542;SDS011;66669;52.100;5.104;2023-02-22T05:05:08;15.35;;;12.43;;
77542;SDS011;66669;52.100;5.104;2023-02-22T05:07:35;16.10;;;12.35;;
77542;SDS011;66669;52.100;5.104;2023-02-22T05:10:00;14.02;;;11.00;;
77542;SDS011;66669;52.100;5.104;2023-02-22T05:12:26;13.25;;;10.07;;
77542;SDS011;66669;52.100;5.104;2023-02-22T05:14:52;15.75;;;12.75;;
77542;SDS011;66669;52.100;5.104;2023-02-22T05:17:17;14.57;;;11.68;;
77542;SDS011;66669;52.100;5.104;2023-02-22T05:19:42;12.40;;;10.00;;
77542;SDS011;66669;52.100;5.104;2023-02-22T05:22:08;12.35;;;9.98;;
77542;SDS011;66669;52.100;5.104;2023-02-22T05:24:33;13.50;;;10.68;;
77542;SDS011;66669;52.100;5.104;2023-02-22T05:26:59;11.13;;;9.52;;
77542;SDS011;66669;52.100;5.104;2023-02-22T05:29:25;11.77;;;9.30;;
77542;SDS011;66669;52.100;5.104;2023-02-22T05:31:50;16.05;;;12.75;;
77542;SDS011;66669;52.100;5.104;2023-02-22T05:34:15;15.40;;;11.93;;
77542;SDS011;66669;52.100;5.104;2023-02-22T05:36:41;16.48;;;13.40;;
77542;SDS011;66669;52.100;5.104;2023-02-22T05:39:07;15.43;;;12.25;;
77542;SDS011;66669;52.100;5.104;2023-02-22T05:41:32;13.30;;;10.45;;
77542;SDS011;66669;52.100;5.104;2023-02-22T05:43:57;12.73;;;10.55;;
77542;SDS011;66669;52.100;5.104;2023-02-22T05:46:23;13.05;;;10.93;;
77542;SDS011;66669;52.100;5.104;2023-02-22T05:48:49;12.93;;;10.65;;
77542;SDS011;66669;52.100;5.104;2023-02-22T05:51:14;13.75;;;11.00;;
77542;SDS011;66669;52.100;5.104;2023-02-22T05:53:40;13.65;;;11.20;;
77542;SDS011;66669;52.100;5.104;2023-02-22T05:56:06;14.40;;;11.60;;
77542;SDS011;66669;52.100;5.104;2023-02-22T05:58:31;15.10;;;12.32;;
77542;SDS011;66669;52.100;5.104;2023-02-22T06:00:57;16.17;;;12.98;;
77542;SDS011;66669;52.100;5.104;2023-02-22T06:03:22;14.13;;;11.63;;
77542;SDS011;66669;52.100;5.104;2023-02-22T06:05:48;14.80;;;12.20;;
77542;SDS011;66669;52.100;5.104;2023-02-22T06:08:13;15.82;;;12.55;;
77542;SDS011;66669;52.100;5.104;2023-02-22T06:10:38;15.63;;;11.95;;
77542;SDS011;66669;52.100;5.104;2023-02-22T06:13:04;13.02;;;10.77;;
77542;SDS011;66669;52.100;5.104;2023-02-22T06:15:29;10.77;;;8.70;;
77542;SDS011;66669;52.100;5.104;2023-02-22T06:17:55;12.77;;;10.60;;
77542;SDS011;66669;52.100;5.104;2023-02-22T06:20:23;17.08;;;13.27;;
77542;SDS011;66669;52.100;5.104;2023-02-22T06:22:50;17.13;;;13.27;;
77542;SDS011;66669;52.100;5.104;2023-02-22T06:25:17;13.77;;;10.68;;
77542;SDS011;66669;52.100;5.104;2023-02-22T06:27:45;12.23;;;9.38;;
77542;SDS011;66669;52.100;5.104;2023-02-22T06:30:11;14.13;;;11.10;;
77542;SDS011;66669;52.100;5.104;2023-02-22T06:32:37;17.92;;;13.20;;
77542;SDS011;66669;52.100;5.104;2023-02-22T06:35:03;12.65;;;10.00;;
77542;SDS011;66669;52.100;5.104;2023-02-22T06:37:29;17.65;;;13.00;;
77542;SDS011;66669;52.100;5.104;2023-02-22T06:39:54;13.63;;;10.68;;
77542;SDS011;66669;52.100;5.104;2023-02-22T06:42:20;10.98;;;9.23;;
77542;SDS011;66669;52.100;5.104;2023-02-22T06:44:45;10.35;;;8.05;;
77542;SDS011;66669;52.100;5.104;2023-02-22T06:47:10;11.02;;;8.70;;
77542;SDS011;66669;52.100;5.104;2023-02-22T06:49:36;10.90;;;8.82;;
77542;SDS011;66669;52.100;5.104;2023-02-22T06:52:05;15.45;;;12.70;;
77542;SDS011;66669;52.100;5.104;2023-02-22T06:54:31;16.65;;;12.75;;
77542;SDS011;66669;52.100;5.104;2023-02-22T06:56:57;15.93;;;12.65;;
77542;SDS011;66669;52.100;5.104;2023-02-22T06:59:22;17.98;;;14.02;;
77542;SDS011;66669;52.100;5.104;2023-02-22T07:01:48;12.63;;;9.90;;
77542;SDS011;66669;52.100;5.104;2023-02-22T07:04:13;11.52;;;9.57;;
77542;SDS011;66669;52.100;5.104;2023-02-22T07:06:43;12.60;;;10.13;;
77542;SDS011;66669;52.100;5.104;2023-02-22T07:09:11;13.32;;;10.20;;
77542;SDS011;66669;52.100;5.104;2023-02-22T07:11:37;16.10;;;12.52;;
77542;SDS011;66669;52.100;5.104;2023-02-22T07:14:03;13.68;;;10.85;;
77542;SDS011;66669;52.100;5.104;2023-02-22T07:16:29;12.82;;;9.98;;
77542;SDS011;66669;52.100;5.104;2023-02-22T07:18:54;12.93;;;10.35;;
77542;SDS011;66669;52.100;5.104;2023-02-22T07:21:19;13.98;;;10.90;;
77542;SDS011;66669;52.100;5.104;2023-02-22T07:23:52;13.52;;;10.95;;
77542;SDS011;66669;52.100;5.104;2023-02-22T07:26:19;11.98;;;9.68;;
77542;SDS011;66669;52.100;5.104;2023-02-22T07:28:45;14.27;;;11.75;;
77542;SDS011;66669;52.100;5.104;2023-02-22T07:31:11;16.27;;;12.82;;
77542;SDS011;66669;52.100;5.104;2023-02-22T07:33:37;13.32;;;10.88;;
77542;SDS011;66669;52.100;5.104;2023-02-22T07:36:02;12.77;;;9.93;;
77542;SDS011;66669;52.100;5.104;2023-02-22T07:38:28;15.30;;;11.63;;
77542;SDS011;66669;52.100;5.104;2023-02-22T07:40:53;15.68;;;11.50;;
77542;SDS011;66669;52.100;5.104;2023-02-22T07:43:25;14.65;;;11.30;;
77542;SDS011;66669;52.100;5.104;2023-02-22T07:45:53;12.75;;;10.20;;
77542;SDS011;66669;52.100;5.104;2023-02-22T07:48:20;13.90;;;11.57;;
77542;SDS011;66669;52.100;5.104;2023-02-22T07:50:47;12.32;;;9.52;;
77542;SDS011;66669;52.100;5.104;2023-02-22T07:53:16;11.63;;;9.20;;
77542;SDS011;66669;52.100;5.104;2023-02-22T07:55:46;12.15;;;10.07;;
77542;SDS011;66669;52.100;5.104;2023-02-22T07:58:15;11.32;;;9.20;;
77542;SDS011;66669;52.100;5.104;2023-02-22T08:00:46;15.00;;;10.38;;
77542;SDS011;66669;52.100;5.104;2023-02-22T08:03:16;14.77;;;12.02;;
77542;SDS011;66669;52.100;5.104;2023-02-22T08:05:44;17.52;;;13.85;;
77542;SDS011;66669;52.100;5.104;2023-02-22T08:08:11;13.85;;;10.93;;
77542;SDS011;66669;52.100;5.104;2023-02-22T08:10:38;16.10;;;12.30;;
77542;SDS011;66669;52.100;5.104;2023-02-22T08:13:04;16.25;;;12.48;;
77542;SDS011;66669;52.100;5.104;2023-02-22T08:15:31;12.65;;;9.95;;
77542;SDS011;66669;52.100;5.104;2023-02-22T08:18:02;11.73;;;9.45;;
77542;SDS011;66669;52.100;5.104;2023-02-22T08:20:30;11.70;;;9.63;;
77542;SDS011;66669;52.100;5.104;2023-02-22T08:22:56;15.00;;;10.60;;
77542;SDS011;66669;52.100;5.104;2023-02-22T08:25:23;10.73;;;8.85;;
77542;SDS011;66669;52.100;5.104;2023-02-22T08:27:51;10.15;;;8.20;;
77542;SDS011;66669;52.100;5.104;2023-02-22T08:30:18;12.40;;;9.85;;
77542;SDS011;66669;52.100;5.104;2023-02-22T08:32:46;10.48;;;8.52;;
77542;SDS011;66669;52.100;5.104;2023-02-22T08:35:13;10.07;;;8.38;;
77542;SDS011;66669;52.100;5.104;2023-02-22T08:37:42;10.15;;;8.35;;
77542;SDS011;66669;52.100;5.104;2023-02-22T08:40:12;9.30;;;7.47;;
77542;SDS011;66669;52.100;5.104;2023-02-22T08:42:38;9.48;;;8.00;;
77542;SDS011;66669;52.100;5.104;2023-02-22T08:45:03;13.02;;;10.23;;
77542;SDS011;66669;52.100;5.104;2023-02-22T08:47:29;11.30;;;9.05;;
77542;SDS011;66669;52.100;5.104;2023-02-22T08:49:55;10.60;;;8.93;;
77542;SDS011;66669;52.100;5.104;2023-02-22T08:52:20;9.85;;;8.20;;
77542;SDS011;66669;52.100;5.104;2023-02-22T08:54:46;10.63;;;9.07;;
77542;SDS011;66669;52.100;5.104;2023-02-22T08:57:12;10.63;;;8.10;;
77542;SDS011;66669;52.100;5.104;2023-02-22T08:59:37;8.48;;;6.90;;
77542;SDS011;66669;52.100;5.104;2023-02-22T09:02:03;11.80;;;9.85;;
77542;SDS011;66669;52.100;5.104;2023-02-22T09:04:29;9.63;;;7.72;;
77542;SDS011;66669;52.100;5.104;2023-02-22T09:06:54;11.63;;;9.32;;
77542;SDS011;66669;52.100;5.104;2023-02-22T09:09:20;9.50;;;7.90;;
77542;SDS011;66669;52.100;5.104;2023-02-22T09:11:46;7.55;;;6.32;;
77542;SDS011;66669;52.100;5.104;2023-02-22T09:14:14;8.68;;;6.85;;
77542;SDS011;66669;52.100;5.104;2023-02-22T09:16:41;11.30;;;7.15;;
77542;SDS011;66669;52.100;5.104;2023-02-22T09:19:07;10.50;;;7.18;;
77542;SDS011;66669;52.100;5.104;2023-02-22T09:21:33;10.07;;;6.93;;
77542;SDS011;66669;52.100;5.104;2023-02-22T09:23:58;7.95;;;5.47;;
77542;SDS011;66669;52.100;5.104;2023-02-22T09:26:32;7.90;;;6.40;;
77542;SDS011;66669;52.100;5.104;2023-02-22T09:28:58;8.40;;;6.25;;
77542;SDS011;66669;52.100;5.104;2023-02-22T09:31:24;6.53;;;5.47;;
77542;SDS011;66669;52.100;5.104;2023-02-22T09:33:49;6.95;;;5.90;;
77542;SDS011;66669;52.100;5.104;2023-02-22T09:36:15;7.75;;;5.68;;
77542;SDS011;66669;52.100;5.104;2023-02-22T09:38:41;7.70;;;5.70;;
77542;SDS011;66669;52.100;5.104;2023-02-22T09:43:37;7.60;;;6.28;;
77542;SDS011;66669;52.100;5.104;2023-02-22T09:46:20;8.48;;;6.53;;
77542;SDS011;66669;52.100;5.104;2023-02-22T09:54:26;7.82;;;6.57;;
77542;SDS011;66669;52.100;5.104;2023-02-22T09:56:58;7.05;;;5.65;;
77542;SDS011;66669;52.100;5.104;2023-02-22T09:59:36;6.45;;;5.57;;
77542;SDS011;66669;52.100;5.104;2023-02-22T10:02:20;8.05;;;5.28;;
77542;SDS011;66669;52.100;5.104;2023-02-22T10:05:34;7.80;;;6.07;;
77542;SDS011;66669;52.100;5.104;2023-02-22T10:08:02;8.05;;;6.00;;
77542;SDS011;66669;52.100;5.104;2023-02-22T10:10:31;9.88;;;6.00;;
77542;SDS011;66669;52.100;5.104;2023-02-22T10:26:27;6.28;;;4.95;;
77542;SDS011;66669;52.100;5.104;2023-02-22T10:31:44;6.90;;;5.20;;
77542;SDS011;66669;52.100;5.104;2023-02-22T10:34:15;6.82;;;5.53;;
77542;SDS011;66669;52.100;5.104;2023-02-22T10:36:47;8.00;;;6.20;;
77542;SDS011;66669;52.100;5.104;2023-02-22T10:39:27;8.75;;;5.63;;
77542;SDS011;66669;52.100;5.104;2023-02-22T10:41:56;7.05;;;5.47;;
77542;SDS011;66669;52.100;5.104;2023-02-22T10:44:29;6.60;;;5.28;;
77542;SDS011;66669;52.100;5.104;2023-02-22T10:46:57;7.00;;;5.93;;
77542;SDS011;66669;52.100;5.104;2023-02-22T10:49:24;8.20;;;6.50;;
77542;SDS011;66669;52.100;5.104;2023-02-22T10:51:57;6.05;;;4.97;;
77542;SDS011;66669;52.100;5.104;2023-02-22T10:54:38;6.93;;;5.60;;
77542;SDS011;66669;52.100;5.104;2023-02-22T10:57:06;6.80;;;5.22;;
77542;SDS011;66669;52.100;5.104;2023-02-22T10:59:36;7.13;;;6.13;;
77542;SDS011;66669;52.100;5.104;2023-02-22T11:02:19;7.03;;;5.78;;
77542;SDS011;66669;52.100;5.104;2023-02-22T11:04:49;7.50;;;6.03;;
77542;SDS011;66669;52.100;5.104;2023-02-22T11:09:48;8.00;;;6.43;;
77542;SDS011;66669;52.100;5.104;2023-02-22T11:12:19;8.77;;;7.35;;
77542;SDS011;66669;52.100;5.104;2023-02-22T11:14:45;7.70;;;6.63;;
77542;SDS011;66669;52.100;5.104;2023-02-22T11:17:12;7.88;;;6.38;;
77542;SDS011;66669;52.100;5.104;2023-02-22T11:19:46;7.78;;;6.45;;
77542;SDS011;66669;52.100;5.104;2023-02-22T11:22:21;6.72;;;5.63;;
77542;SDS011;66669;52.100;5.104;2023-02-22T11:24:51;8.20;;;6.28;;
77542;SDS011;66669;52.100;5.104;2023-02-22T11:27:36;8.02;;;5.93;;
77542;SDS011;66669;52.100;5.104;2023-02-22T11:30:19;8.45;;;6.47;;
77542;SDS011;66669;52.100;5.104;2023-02-22T11:33:02;8.88;;;7.15;;
77542;SDS011;66669;52.100;5.104;2023-02-22T11:35:49;8.38;;;5.95;;
77542;SDS011;66669;52.100;5.104;2023-02-22T11:38:26;6.15;;;5.05;;
77542;SDS011;66669;52.100;5.104;2023-02-22T11:41:04;6.80;;;5.72;;
77542;SDS011;66669;52.100;5.104;2023-02-22T11:43:30;7.30;;;5.93;;
77542;SDS011;66669;52.100;5.104;2023-02-22T11:48:30;6.05;;;5.13;;
77542;SDS011;66669;52.100;5.104;2023-02-22T11:51:20;6.20;;;5.10;;
77542;SDS011;66669;52.100;5.104;2023-02-22T11:59:40;7.05;;;6.03;;
77542;SDS011;66669;52.100;5.104;2023-02-22T12:21:12;7.55;;;6.15;;
77542;SDS011;66669;52.100;5.104;2023-02-22T12:28:50;7.30;;;5.80;;
77542;SDS011;66669;52.100;5.104;2023-02-22T12:36:20;7.43;;;5.97;;
77542;SDS011;66669;52.100;5.104;2023-02-22T12:38:51;6.95;;;5.80;;
77542;SDS011;66669;52.100;5.104;2023-02-22T12:41:31;5.95;;;5.22;;
77542;SDS011;66669;52.100;5.104;2023-02-22T12:44:06;6.30;;;4.63;;
77542;SDS011;66669;52.100;5.104;2023-02-22T12:46:39;6.03;;;4.75;;
77542;SDS011;66669;52.100;5.104;2023-02-22T12:55:03;6.60;;;5.22;;
77542;SDS011;66669;52.100;5.104;2023-02-22T13:12:15;5.55;;;4.65;;
77542;SDS011;66669;52.100;5.104;2023-02-22T13:20:22;6.35;;;5.18;;
77542;SDS011;66669;52.100;5.104;2023-02-22T13:23:00;6.22;;;5.18;;
77542;SDS011;66669;52.100;5.104;2023-02-22T13:25:37;8.23;;;5.80;;
77542;SDS011;66669;52.100;5.104;2023-02-22T13:30:46;7.60;;;5.72;;
77542;SDS011;66669;52.100;5.104;2023-02-22T13:36:07;7.18;;;5.65;;
77542;SDS011;66669;52.100;5.104;2023-02-22T13:46:55;6.43;;;5.28;;
77542;SDS011;66669;52.100;5.104;2023-02-22T13:49:40;4.32;;;3.75;;
77542;SDS011;66669;52.100;5.104;2023-02-22T13:52:10;6.20;;;4.80;;
77542;SDS011;66669;52.100;5.104;2023-02-22T13:57:41;7.57;;;5.30;;
77542;SDS011;66669;52.100;5.104;2023-02-22T14:13:08;5.95;;;5.10;;
77542;SDS011;66669;52.100;5.104;2023-02-22T14:15:34;7.80;;;5.88;;
77542;SDS011;66669;52.100;5.104;2023-02-22T14:18:04;6.15;;;5.07;;
77542;SDS011;66669;52.100;5.104;2023-02-22T14:28:48;6.43;;;4.97;;
77542;SDS011;66669;52.100;5.104;2023-02-22T14:31:17;4.95;;;4.28;;
77542;SDS011;66669;52.100;5.104;2023-02-22T14:33:48;6.15;;;4.47;;
77542;SDS011;66669;52.100;5.104;2023-02-22T14:36:17;5.93;;;5.30;;
77542;SDS011;66669;52.100;5.104;2023-02-22T14:38:48;5.88;;;4.60;;
77542;SDS011;66669;52.100;5.104;2023-02-22T14:41:18;6.85;;;5.82;;
77542;SDS011;66669;52.100;5.104;2023-02-22T14:43:50;7.20;;;5.78;;
77542;SDS011;66669;52.100;5.104;2023-02-22T14:46:21;6.47;;;5.07;;
77542;SDS011;66669;52.100;5.104;2023-02-22T14:48:53;6.88;;;5.60;;
77542;SDS011;66669;52.100;5.104;2023-02-22T14:51:24;7.32;;;5.53;;
77542;SDS011;66669;52.100;5.104;2023-02-22T15:02:22;7.03;;;5.03;;
77542;SDS011;66669;52.100;5.104;2023-02-22T15:04:52;7.47;;;5.80;;
77542;SDS011;66669;52.100;5.104;2023-02-22T15:07:23;5.80;;;5.20;;
77542;SDS011;66669;52.100;5.104;2023-02-22T15:09:52;5.88;;;4.90;;
77542;SDS011;66669;52.100;5.104;2023-02-22T15:15:11;5.60;;;4.85;;
77542;SDS011;66669;52.100;5.104;2023-02-22T15:17:40;6.78;;;6.03;;
77542;SDS011;66669;52.100;5.104;2023-02-22T15:20:11;6.22;;;5.15;;
77542;SDS011;66669;52.100;5.104;2023-02-22T15:22:40;7.60;;;5.85;;
77542;SDS011;66669;52.100;5.104;2023-02-22T15:25:07;6.25;;;5.10;;
77542;SDS011;66669;52.100;5.104;2023-02-22T15:27:34;6.75;;;5.22;;
77542;SDS011;66669;52.100;5.104;2023-02-22T15:30:34;6.20;;;5.27;;
77542;SDS011;66669;52.100;5.104;2023-02-22T15:32:54;6.03;;;4.93;;
77542;SDS011;66669;52.100;5.104;2023-02-22T15:35:25;6.55;;;5.35;;
77542;SDS011;66669;52.100;5.104;2023-02-22T15:38:18;6.90;;;5.95;;
77542;SDS011;66669;52.100;5.104;2023-02-22T15:40:46;5.78;;;5.15;;
77542;SDS011;66669;52.100;5.104;2023-02-22T15:43:23;6.05;;;4.78;;
77542;SDS011;66669;52.100;5.104;2023-02-22T15:45:52;7.10;;;5.30;;
77542;SDS011;66669;52.100;5.104;2023-02-22T15:48:18;6.50;;;5.82;;
77542;SDS011;66669;52.100;5.104;2023-02-22T15:51:04;6.00;;;5.20;;
77542;SDS011;66669;52.100;5.104;2023-02-22T15:53:39;6.00;;;5.40;;
77542;SDS011;66669;52.100;5.104;2023-02-22T15:56:17;6.47;;;5.70;;
77542;SDS011;66669;52.100;5.104;2023-02-22T15:58:50;6.25;;;5.63;;
77542;SDS011;66669;52.100;5.104;2023-02-22T16:01:23;6.53;;;5.57;;
77542;SDS011;66669;52.100;5.104;2023-02-22T16:03:55;6.22;;;5.60;;
77542;SDS011;66669;52.100;5.104;2023-02-22T16:06:32;7.07;;;6.10;;
77542;SDS011;66669;52.100;5.104;2023-02-22T16:09:09;6.75;;;5.60;;
77542;SDS011;66669;52.100;5.104;2023-02-22T16:11:38;7.80;;;5.70;;
77542;SDS011;66669;52.100;5.104;2023-02-22T16:14:25;7.15;;;6.25;;
77542;SDS011;66669;52.100;5.104;2023-02-22T16:17:19;6.93;;;5.93;;
77542;SDS011;66669;52.100;5.104;2023-02-22T16:19:52;6.80;;;5.97;;
77542;SDS011;66669;52.100;5.104;2023-02-22T16:22:26;7.43;;;6.20;;
77542;SDS011;66669;52.100;5.104;2023-02-22T16:27:44;6.97;;;6.05;;
77542;SDS011;66669;52.100;5.104;2023-02-22T16:32:41;7.85;;;6.90;;
77542;SDS011;66669;52.100;5.104;2023-02-22T16:35:07;10.10;;;8.43;;
77542;SDS011;66669;52.100;5.104;2023-02-22T16:37:42;8.57;;;7.50;;
77542;SDS011;66669;52.100;5.104;2023-02-22T16:42:56;7.97;;;6.88;;
77542;SDS011;66669;52.100;5.104;2023-02-22T16:45:23;7.68;;;6.38;;
77542;SDS011;66669;52.100;5.104;2023-02-22T16:47:49;8.18;;;7.20;;
77542;SDS011;66669;52.100;5.104;2023-02-22T16:50:17;7.45;;;6.30;;
77542;SDS011;66669;52.100;5.104;2023-02-22T16:52:43;8.35;;;7.32;;
77542;SDS011;66669;52.100;5.104;2023-02-22T16:55:10;10.35;;;8.63;;
77542;SDS011;66669;52.100;5.104;2023-02-22T16:57:38;9.80;;;8.32;;
77542;SDS011;66669;52.100;5.104;2023-02-22T17:00:06;8.15;;;7.10;;
77542;SDS011;66669;52.100;5.104;2023-02-22T17:02:37;7.93;;;7.13;;
77542;SDS011;66669;52.100;5.104;2023-02-22T17:05:03;9.10;;;7.50;;
77542;SDS011;66669;52.100;5.104;2023-02-22T17:07:29;10.45;;;8.90;;
77542;SDS011;66669;52.100;5.104;2023-02-22T17:09:56;10.73;;;8.57;;
77542;SDS011;66669;52.100;5.104;2023-02-22T17:12:25;9.70;;;8.70;;
77542;SDS011;66669;52.100;5.104;2023-02-22T17:14:52;11.13;;;9.40;;
77542;SDS011;66669;52.100;5.104;2023-02-22T17:17:18;9.07;;;7.95;;
77542;SDS011;66669;52.100;5.104;2023-02-22T17:19:44;9.50;;;8.02;;
77542;SDS011;66669;52.100;5.104;2023-02-22T17:22:27;10.55;;;8.50;;
77542;SDS011;66669;52.100;5.104;2023-02-22T17:24:53;10.15;;;8.65;;
77542;SDS011;66669;52.100;5.104;2023-02-22T17:27:18;9.50;;;8.45;;
77542;SDS011;66669;52.100;5.104;2023-02-22T17:29:44;10.77;;;9.35;;
77542;SDS011;66669;52.100;5.104;2023-02-22T17:32:09;10.23;;;8.20;;
77542;SDS011;66669;52.100;5.104;2023-02-22T17:34:35;9.63;;;8.52;;
77542;SDS011;66669;52.100;5.104;2023-02-22T17:37:00;8.80;;;7.78;;
77542;SDS011;66669;52.100;5.104;2023-02-22T17:39:26;11.35;;;9.10;;
77542;SDS011;66669;52.100;5.104;2023-02-22T17:41:51;12.43;;;10.10;;
77542;SDS011;66669;52.100;5.104;2023-02-22T17:44:21;13.32;;;11.23;;
77542;SDS011;66669;52.100;5.104;2023-02-22T17:49:16;12.82;;;11.05;;